createdAt,value
2023-04-19T00:01:48.778Z,99419.00
2023-04-19T00:04:17.115Z,99431.00
2023-04-19T00:06:46.222Z,99415.25
2023-04-19T00:09:14.218Z,99420.81
2023-04-19T00:11:42.144Z,99420.16
2023-04-19T00:14:10.059Z,99406.84
2023-04-19T00:16:39.393Z,99413.88
2023-04-19T00:19:07.498Z,99410.50
2023-04-19T00:21:35.439Z,99415.78
2023-04-19T00:24:03.742Z,99404.81
2023-04-19T00:26:31.659Z,99405.44
2023-04-19T00:28:59.574Z,99403.75
2023-04-19T00:31:27.606Z,99401.72
2023-04-19T00:33:57.706Z,99396.31
2023-04-19T00:36:26.746Z,99395.84
2023-04-19T00:38:54.722Z,99403.31
2023-04-19T00:41:22.639Z,99398.69
2023-04-19T00:43:50.608Z,99399.22
2023-04-19T00:46:18.590Z,99396.50
2023-04-19T00:48:46.558Z,99408.13
2023-04-19T00:51:15.882Z,99401.47
2023-04-19T00:53:44.579Z,99404.34
2023-04-19T00:56:12.544Z,99414.41
2023-04-19T00:58:40.501Z,99407.94
2023-04-19T01:01:08.497Z,99411.06
2023-04-19T01:03:37.002Z,99405.09
2023-04-19T01:06:05.173Z,99411.75
2023-04-19T01:08:34.491Z,99411.91
2023-04-19T01:11:02.659Z,99404.59
2023-04-19T01:13:30.604Z,99412.81
2023-04-19T01:15:58.974Z,99404.09
2023-04-19T01:18:32.857Z,99406.03
2023-04-19T01:21:00.836Z,99407.28
2023-04-19T01:23:30.125Z,99397.81
2023-04-19T01:25:58.071Z,99406.03
2023-04-19T01:28:25.996Z,99399.34
2023-04-19T01:30:54.825Z,99398.19
2023-04-19T01:33:22.789Z,99396.13
2023-04-19T01:35:50.779Z,99388.59
2023-04-19T01:38:18.715Z,99392.72
2023-04-19T01:40:48.067Z,99393.75
2023-04-19T01:43:17.738Z,99390.03
2023-04-19T01:45:45.677Z,99389.41
2023-04-19T01:48:13.612Z,99386.91
2023-04-19T01:50:41.639Z,99383.16
2023-04-19T01:53:09.564Z,99388.28
2023-04-19T01:55:37.478Z,99387.72
2023-04-19T01:58:07.353Z,99378.59
2023-04-19T02:00:35.391Z,99375.31
2023-04-19T02:03:03.541Z,99385.66
2023-04-19T02:05:31.621Z,99382.38
2023-04-19T02:08:01.280Z,99384.09
2023-04-19T02:10:29.208Z,99378.69
2023-04-19T02:12:57.101Z,99382.88
2023-04-19T02:15:26.480Z,99377.81
2023-04-19T02:17:54.471Z,99379.50
2023-04-19T02:20:24.036Z,99379.34
2023-04-19T02:22:52.012Z,99371.22
2023-04-19T02:25:20.227Z,99369.19
2023-04-19T02:27:48.105Z,99380.78
2023-04-19T02:30:16.277Z,99383.19
2023-04-19T02:32:45.678Z,99386.91
2023-04-19T02:35:14.034Z,99377.44
2023-04-19T02:37:42.016Z,99383.63
2023-04-19T02:40:10.468Z,99383.19
2023-04-19T02:42:38.512Z,99372.06
2023-04-19T02:45:07.494Z,99375.41
2023-04-19T02:47:35.488Z,99379.09
2023-04-19T02:50:05.197Z,99374.38
2023-04-19T02:52:33.084Z,99376.66
2023-04-19T02:55:01.011Z,99374.09
2023-04-19T02:57:28.970Z,99370.72
2023-04-19T02:59:56.911Z,99369.09
2023-04-19T03:02:24.884Z,99363.72
2023-04-19T03:04:54.096Z,99371.59
2023-04-19T03:07:23.978Z,99372.00
2023-04-19T03:09:52.056Z,99367.84
2023-04-19T03:12:20.019Z,99376.31
2023-04-19T03:14:47.942Z,99377.72
2023-04-19T03:17:16.525Z,99370.09
2023-04-19T03:19:44.568Z,99374.03
2023-04-19T03:22:12.464Z,99375.66
2023-04-19T03:24:41.905Z,99377.59
2023-04-19T03:27:09.850Z,99370.28
2023-04-19T03:29:37.790Z,99378.56
2023-04-19T03:32:05.849Z,99375.59
2023-04-19T03:34:33.809Z,99370.56
2023-04-19T03:37:01.778Z,99373.38
2023-04-19T03:39:29.737Z,99363.91
2023-04-19T03:41:59.073Z,99366.84
2023-04-19T03:44:27.033Z,99368.47
2023-04-19T03:46:55.026Z,99368.38
2023-04-19T03:49:23.034Z,99369.66
2023-04-19T03:51:50.981Z,99372.09
2023-04-19T03:54:18.952Z,99377.47
2023-04-19T03:56:46.872Z,99376.22
2023-04-19T03:59:16.225Z,99372.41
2023-04-19T04:01:44.165Z,99376.22
2023-04-19T04:04:12.964Z,99384.28
2023-04-19T04:06:41.081Z,99375.00
2023-04-19T04:09:09.085Z,99375.19
2023-04-19T04:11:36.999Z,99379.78
2023-04-19T04:14:05.303Z,99379.91
2023-04-19T04:16:34.594Z,99383.38
2023-04-19T04:19:02.550Z,99374.66
2023-04-19T04:21:30.732Z,99379.47
2023-04-19T04:23:58.738Z,99374.47
2023-04-19T04:26:30.773Z,99373.69
2023-04-19T04:28:58.742Z,99375.84
2023-04-19T04:31:27.230Z,99378.72
2023-04-19T04:33:56.600Z,99376.63
2023-04-19T04:36:26.010Z,99379.31
2023-04-19T04:38:53.945Z,99377.19
2023-04-19T04:41:22.951Z,99385.31
2023-04-19T04:44:04.612Z,99387.75
2023-04-19T04:46:39.018Z,99387.09
2023-04-19T04:49:08.441Z,99392.47
2023-04-19T04:51:37.306Z,99394.16
2023-04-19T04:54:05.705Z,99399.63
2023-04-19T04:56:33.674Z,99401.88
2023-04-19T04:59:01.628Z,99394.00
2023-04-19T05:01:29.588Z,99395.34
2023-04-19T05:03:57.540Z,99406.66
2023-04-19T05:06:27.331Z,99410.00
2023-04-19T05:08:55.233Z,99400.03
2023-04-19T05:11:23.177Z,99408.09
2023-04-19T05:13:51.126Z,99408.75
2023-04-19T05:16:19.868Z,99401.28
2023-04-19T05:18:47.849Z,99400.41
2023-04-19T05:21:15.794Z,99412.03
2023-04-19T05:23:45.116Z,99412.44
2023-04-19T05:26:15.329Z,99417.25
2023-04-19T05:28:43.350Z,99418.41
2023-04-19T05:31:11.327Z,99418.44
2023-04-19T05:33:39.310Z,99411.03
2023-04-19T05:36:07.806Z,99414.72
2023-04-19T05:38:35.795Z,99420.38
2023-04-19T05:41:05.288Z,99422.81
2023-04-19T05:43:33.210Z,99424.66
2023-04-19T05:46:01.162Z,99425.50
2023-04-19T05:48:29.228Z,99424.88
2023-04-19T05:50:58.073Z,99424.47
2023-04-19T05:53:26.048Z,99425.78
2023-04-19T05:55:54.026Z,99432.81
2023-04-19T05:58:23.394Z,99429.19
2023-04-19T06:00:52.412Z,99435.22
2023-04-19T06:03:20.636Z,99439.09
2023-04-19T06:05:48.808Z,99440.69
2023-04-19T06:08:17.730Z,99446.81
2023-04-19T06:10:54.667Z,99439.34
2023-04-19T06:13:26.179Z,99446.25
2023-04-19T06:15:54.185Z,99451.53
2023-04-19T06:18:22.178Z,99456.13
2023-04-19T06:20:50.133Z,99451.16
2023-04-19T06:23:18.747Z,99451.94
2023-04-19T06:25:48.757Z,99457.97
2023-04-19T06:28:17.018Z,99453.72
2023-04-19T06:30:46.301Z,99453.63
2023-04-19T06:33:14.231Z,99453.72
2023-04-19T06:35:42.165Z,99457.94
2023-04-19T06:38:10.187Z,99457.16
2023-04-19T06:40:38.174Z,99452.53
2023-04-19T06:43:06.175Z,99458.56
2023-04-19T06:45:34.302Z,99459.34
2023-04-19T06:48:03.667Z,99451.66
2023-04-19T06:50:31.701Z,99459.72
2023-04-19T06:52:59.828Z,99455.56
2023-04-19T06:55:27.752Z,99459.09
2023-04-19T06:57:56.831Z,99475.81
2023-04-19T07:00:24.910Z,99469.31
2023-04-19T07:02:52.940Z,99476.28
2023-04-19T07:05:22.405Z,99465.13
2023-04-19T07:07:50.316Z,99471.91
2023-04-19T07:10:18.469Z,99469.59
2023-04-19T07:12:46.394Z,99474.34
2023-04-19T07:15:14.336Z,99475.75
2023-04-19T07:17:42.312Z,99477.56
2023-04-19T07:20:11.118Z,99476.84
2023-04-19T07:22:40.440Z,99479.47
2023-04-19T07:25:09.450Z,99483.28
2023-04-19T07:27:37.340Z,99481.78
2023-04-19T07:30:06.076Z,99475.16
2023-04-19T07:32:34.153Z,99482.28
2023-04-19T07:35:02.426Z,99479.00
2023-04-19T07:37:31.374Z,99486.34
2023-04-19T07:40:00.668Z,99487.44
2023-04-19T07:42:28.810Z,99482.03
2023-04-19T07:44:56.706Z,99476.72
2023-04-19T07:47:24.660Z,99479.25
2023-04-19T07:49:53.454Z,99482.50
2023-04-19T07:52:21.412Z,99468.84
2023-04-19T07:54:49.373Z,99481.75
2023-04-19T07:57:18.632Z,99473.56
2023-04-19T07:59:46.538Z,99470.38
2023-04-19T08:02:16.598Z,99470.00
2023-04-19T08:04:45.700Z,99471.34
2023-04-19T08:07:13.907Z,99476.41
2023-04-19T08:09:41.978Z,99469.03
2023-04-19T08:12:12.625Z,99464.81
2023-04-19T08:14:56.522Z,99463.41
2023-04-19T08:17:36.713Z,99460.13
2023-04-19T08:20:11.638Z,99455.53
2023-04-19T08:22:40.846Z,99452.63
2023-04-19T08:25:09.870Z,99455.13
2023-04-19T08:27:37.850Z,99457.19
2023-04-19T08:30:09.306Z,99447.22
2023-04-19T08:32:37.745Z,99446.34
2023-04-19T08:35:08.355Z,99445.78
2023-04-19T08:37:36.371Z,99435.59
2023-04-19T08:40:05.518Z,99434.56
2023-04-19T08:42:36.885Z,99430.16
2023-04-19T08:47:48.242Z,99421.97
2023-04-19T08:50:33.332Z,99421.31
2023-04-19T08:55:34.739Z,99421.22
2023-04-19T08:58:04.010Z,99414.97
2023-04-19T09:00:35.399Z,99420.59
2023-04-19T09:03:03.566Z,99413.06
2023-04-19T09:05:32.066Z,99415.88
2023-04-19T09:08:21.861Z,99427.91
2023-04-19T09:10:54.512Z,99422.53
2023-04-19T09:13:22.415Z,99416.44
2023-04-19T09:15:53.587Z,99417.03
2023-04-19T09:18:21.654Z,99424.56
2023-04-19T09:20:49.645Z,99415.66
2023-04-19T09:23:19.245Z,99417.16
2023-04-19T09:28:28.932Z,99419.81
2023-04-19T09:31:05.668Z,99421.03
2023-04-19T09:33:45.247Z,99427.69
2023-04-19T09:36:14.586Z,99413.25
2023-04-19T09:38:47.851Z,99424.56
2023-04-19T09:41:15.865Z,99428.84
2023-04-19T09:43:58.923Z,99417.94
2023-04-19T09:46:33.937Z,99427.78
2023-04-19T09:49:27.246Z,99425.66
2023-04-19T09:51:58.624Z,99427.13
2023-04-19T09:54:27.490Z,99426.38
2023-04-19T09:56:57.883Z,99424.44
2023-04-19T09:59:26.377Z,99429.59
2023-04-19T10:01:56.454Z,99427.88
2023-04-19T10:04:36.299Z,99425.31
2023-04-19T10:09:51.746Z,99414.84
2023-04-19T10:14:58.949Z,99416.81
2023-04-19T10:17:28.306Z,99422.41
2023-04-19T10:19:58.974Z,99412.72
2023-04-19T10:22:26.889Z,99421.47
2023-04-19T10:25:12.983Z,99421.13
2023-04-19T10:27:42.130Z,99412.06
2023-04-19T10:30:18.196Z,99412.00
2023-04-19T10:32:53.424Z,99415.34
2023-04-19T10:35:22.109Z,99408.72
2023-04-19T10:38:07.017Z,99405.75
2023-04-19T10:40:57.220Z,99412.22
2023-04-19T10:43:25.432Z,99412.88
2023-04-19T10:45:53.496Z,99411.88
2023-04-19T10:48:39.589Z,99407.97
2023-04-19T10:51:14.509Z,99409.31
2023-04-19T10:53:53.174Z,99412.56
2023-04-19T10:56:22.627Z,99412.81
2023-04-19T10:59:26.776Z,99410.69
2023-04-19T11:01:56.132Z,99414.97
2023-04-19T11:04:41.258Z,99399.63
2023-04-19T11:07:09.350Z,99404.13
2023-04-19T11:09:39.009Z,99398.53
2023-04-19T11:12:08.891Z,99392.69
2023-04-19T11:14:38.418Z,99392.34
2023-04-19T11:17:16.306Z,99386.41
2023-04-19T11:19:46.737Z,99386.72
2023-04-19T11:22:14.693Z,99383.94
2023-04-19T11:24:48.239Z,99375.97
2023-04-19T11:27:16.184Z,99381.59
2023-04-19T11:29:44.106Z,99378.97
2023-04-19T11:32:12.080Z,99372.22
2023-04-19T11:34:40.174Z,99376.25
2023-04-19T11:37:09.746Z,99378.72
2023-04-19T11:39:46.902Z,99381.06
2023-04-19T11:42:21.091Z,99381.31
2023-04-19T11:44:52.813Z,99379.66
2023-04-19T11:47:20.923Z,99374.75
2023-04-19T11:49:48.879Z,99372.31
2023-04-19T11:52:23.593Z,99365.75
2023-04-19T11:54:52.595Z,99362.84
2023-04-19T11:57:30.099Z,99359.25
2023-04-19T12:00:07.992Z,99369.31
2023-04-19T12:02:39.176Z,99358.94
2023-04-19T12:05:11.640Z,99356.81
2023-04-19T12:07:55.933Z,99355.16
2023-04-19T12:10:23.996Z,99353.94
2023-04-19T12:12:51.950Z,99351.41
2023-04-19T12:15:21.272Z,99342.75
2023-04-19T12:17:58.388Z,99332.50
2023-04-19T12:20:33.391Z,99334.84
2023-04-19T12:23:02.776Z,99326.78
2023-04-19T12:25:31.313Z,99319.72
2023-04-19T12:27:59.428Z,99313.91
2023-04-19T12:30:27.573Z,99316.09
2023-04-19T12:32:56.373Z,99310.66
2023-04-19T12:35:25.461Z,99307.25
2023-04-19T12:37:53.600Z,99307.06
2023-04-19T12:40:22.912Z,99297.78
2023-04-19T12:42:50.840Z,99306.06
2023-04-19T12:45:19.054Z,99299.75
2023-04-19T12:47:47.846Z,99296.28
2023-04-19T12:50:16.125Z,99295.25
2023-04-19T12:52:45.063Z,99294.63
2023-04-19T12:55:13.055Z,99298.41
2023-04-19T12:57:42.745Z,99296.00
2023-04-19T13:00:12.532Z,99298.41
2023-04-19T13:02:40.550Z,99292.28
2023-04-19T13:05:09.161Z,99301.22
2023-04-19T13:07:37.145Z,99290.88
2023-04-19T13:10:06.113Z,99295.50
2023-04-19T13:12:34.085Z,99282.56
2023-04-19T13:15:04.671Z,99281.84
2023-04-19T13:17:33.094Z,99278.06
2023-04-19T13:20:01.062Z,99277.66
2023-04-19T13:22:29.028Z,99270.94
2023-04-19T13:24:56.941Z,99275.31
2023-04-19T13:27:24.889Z,99273.34
2023-04-19T13:29:52.858Z,99265.47
2023-04-19T13:32:22.200Z,99266.19
2023-04-19T13:34:50.184Z,99266.94
2023-04-19T13:37:18.123Z,99263.13
2023-04-19T13:39:46.076Z,99257.44
2023-04-19T13:42:14.751Z,99261.69
2023-04-19T13:44:42.692Z,99260.38
2023-04-19T13:47:10.781Z,99261.47
2023-04-19T13:49:40.486Z,99262.47
2023-04-19T13:52:08.432Z,99262.72
2023-04-19T13:54:36.399Z,99257.69
2023-04-19T13:57:04.308Z,99255.13
2023-04-19T13:59:32.250Z,99255.97
2023-04-19T14:02:00.290Z,99249.03
2023-04-19T14:04:28.448Z,99247.38
2023-04-19T14:06:57.879Z,99251.63
2023-04-19T14:09:25.985Z,99247.63
2023-04-19T14:11:54.089Z,99251.50
2023-04-19T14:14:22.045Z,99247.38
2023-04-19T14:16:50.263Z,99250.00
2023-04-19T14:19:18.267Z,99249.28
2023-04-19T14:21:46.189Z,99259.31
2023-04-19T14:24:16.119Z,99255.75
2023-04-19T14:26:44.180Z,99252.88
2023-04-19T14:29:12.142Z,99251.22
2023-04-19T14:31:40.153Z,99257.19
2023-04-19T14:34:08.178Z,99251.25
2023-04-19T14:36:36.158Z,99255.84
2023-04-19T14:39:04.107Z,99252.66
2023-04-19T14:41:33.409Z,99250.09
2023-04-19T14:44:01.459Z,99253.19
2023-04-19T14:46:29.537Z,99252.28
2023-04-19T14:49:03.301Z,99252.78
2023-04-19T14:51:31.817Z,99254.91
2023-04-19T14:53:59.923Z,99249.94
2023-04-19T14:56:27.845Z,99255.50
2023-04-19T14:58:57.137Z,99252.25
2023-04-19T15:01:25.108Z,99250.63
2023-04-19T15:03:53.292Z,99252.06
2023-04-19T15:06:21.387Z,99255.16
2023-04-19T15:08:49.321Z,99251.56
2023-04-19T15:11:17.234Z,99251.41
2023-04-19T15:13:45.207Z,99257.19
2023-04-19T15:16:14.590Z,99251.22
2023-04-19T15:18:42.601Z,99246.06
2023-04-19T15:21:10.509Z,99251.53
2023-04-19T15:23:38.487Z,99251.41
2023-04-19T15:26:06.689Z,99248.72
2023-04-19T15:28:36.145Z,99256.59
2023-04-19T15:31:04.887Z,99247.66
2023-04-19T15:33:34.236Z,99241.88
2023-04-19T15:36:02.221Z,99233.09
2023-04-19T15:38:31.055Z,99238.97
2023-04-19T15:40:59.443Z,99235.22
2023-04-19T15:43:27.397Z,99235.78
2023-04-19T15:45:55.373Z,99242.03
2023-04-19T15:48:23.348Z,99234.72
2023-04-19T15:50:52.635Z,99231.00
2023-04-19T15:53:20.678Z,99237.69
2023-04-19T15:55:48.678Z,99234.56
2023-04-19T15:58:16.640Z,99237.34
2023-04-19T16:00:44.675Z,99247.66
2023-04-19T16:03:13.019Z,99245.81
2023-04-19T16:05:41.225Z,99240.69
2023-04-19T16:08:11.676Z,99233.69
2023-04-19T16:10:39.896Z,99245.47
2023-04-19T16:13:07.883Z,99237.19
2023-04-19T16:15:36.057Z,99230.13
2023-04-19T16:18:04.088Z,99236.88
2023-04-19T16:20:32.163Z,99234.28
2023-04-19T16:23:03.362Z,99234.97
2023-04-19T16:25:32.741Z,99236.28
2023-04-19T16:28:00.880Z,99255.88
2023-04-19T16:30:28.852Z,99237.22
2023-04-19T16:32:57.005Z,99241.84
2023-04-19T16:35:25.055Z,99241.66
2023-04-19T16:37:55.863Z,99245.25
2023-04-19T16:40:25.256Z,99244.47
2023-04-19T16:42:54.598Z,99253.41
2023-04-19T16:45:22.570Z,99247.44
2023-04-19T16:47:50.591Z,99248.31
2023-04-19T16:50:19.125Z,99245.88
2023-04-19T16:52:47.131Z,99251.28
2023-04-19T16:55:15.661Z,99252.16
2023-04-19T16:57:43.668Z,99261.75
2023-04-19T17:00:14.401Z,99269.25
2023-04-19T17:02:42.420Z,99266.78
2023-04-19T17:05:12.729Z,99269.28
2023-04-19T17:07:40.796Z,99267.84
2023-04-19T17:10:09.831Z,99266.81
2023-04-19T17:12:37.762Z,99276.19
2023-04-19T17:15:06.843Z,99278.03
2023-04-19T17:17:36.231Z,99275.56
2023-04-19T17:20:05.977Z,99278.50
2023-04-19T17:22:33.909Z,99283.91
2023-04-19T17:25:01.822Z,99284.31
2023-04-19T17:27:29.726Z,99287.63
2023-04-19T17:29:57.686Z,99303.00
2023-04-19T17:32:25.661Z,99300.94
2023-04-19T17:34:54.986Z,99310.28
2023-04-19T17:37:22.970Z,99316.72
2023-04-19T17:39:50.973Z,99320.88
2023-04-19T17:42:18.945Z,99317.97
2023-04-19T17:44:47.309Z,99317.53
2023-04-19T17:47:15.282Z,99323.34
2023-04-19T17:49:45.845Z,99324.56
2023-04-19T17:52:15.248Z,99327.28
2023-04-19T17:54:43.183Z,99327.88
2023-04-19T17:57:11.157Z,99325.81
2023-04-19T17:59:39.110Z,99326.44
2023-04-19T18:02:10.156Z,99328.31
2023-04-19T18:04:39.560Z,99327.91
2023-04-19T18:07:07.581Z,99333.28
2023-04-19T18:09:36.910Z,99332.44
2023-04-19T18:12:05.817Z,99335.16
2023-04-19T18:14:33.789Z,99338.28
2023-04-19T18:17:02.146Z,99339.09
2023-04-19T18:19:30.147Z,99344.31
2023-04-19T18:21:58.265Z,99340.75
2023-04-19T18:24:26.237Z,99343.44
2023-04-19T18:26:55.558Z,99346.34
2023-04-19T18:29:24.371Z,99351.53
2023-04-19T18:31:52.967Z,99338.66
2023-04-19T18:34:21.009Z,99353.41
2023-04-19T18:36:49.052Z,99352.56
2023-04-19T18:39:18.833Z,99359.41
2023-04-19T18:41:46.996Z,99357.78
2023-04-19T18:44:38.891Z,99361.09
2023-04-19T18:47:04.500Z,99363.63
2023-04-19T18:49:32.858Z,99366.56
2023-04-19T18:52:00.824Z,99361.56
2023-04-19T18:54:28.828Z,99368.22
2023-04-19T18:57:21.950Z,99364.91
2023-04-19T18:59:46.383Z,99372.78
2023-04-19T19:02:14.410Z,99373.63
2023-04-19T19:04:51.889Z,99374.00
2023-04-19T19:07:35.569Z,99367.97
2023-04-19T19:10:17.045Z,99368.63
2023-04-19T19:12:46.792Z,99371.97
2023-04-19T19:15:16.105Z,99370.69
2023-04-19T19:17:49.238Z,99371.13
2023-04-19T19:20:18.617Z,99374.03
2023-04-19T19:22:46.590Z,99378.19
2023-04-19T19:25:14.560Z,99375.03
2023-04-19T19:27:58.306Z,99374.63
2023-04-19T19:30:33.943Z,99374.84
2023-04-19T19:33:02.543Z,99378.16
2023-04-19T19:35:30.673Z,99378.16
2023-04-19T19:37:58.715Z,99379.00
2023-04-19T19:40:31.194Z,99372.34
2023-04-19T19:43:00.768Z,99378.97
2023-04-19T19:45:29.398Z,99378.56
2023-04-19T19:48:00.027Z,99378.56
2023-04-19T19:53:00.279Z,99379.34
2023-04-19T19:55:28.555Z,99381.03
2023-04-19T20:02:59.640Z,99378.13
2023-04-19T20:05:28.716Z,99391.84
2023-04-19T20:08:06.114Z,99395.16
2023-04-19T20:10:34.126Z,99389.75
2023-04-19T20:13:02.471Z,99395.16
2023-04-19T20:15:31.083Z,99386.00
2023-04-19T20:18:00.516Z,99386.44
2023-04-19T20:20:28.544Z,99393.53
2023-04-19T20:22:56.565Z,99389.38
2023-04-19T20:25:24.525Z,99383.56
2023-04-19T20:27:52.551Z,99380.69
2023-04-19T20:30:20.504Z,99385.69
2023-04-19T20:32:50.322Z,99383.63
2023-04-19T20:35:19.931Z,99377.59
2023-04-19T20:37:47.959Z,99390.31
2023-04-19T20:40:16.334Z,99382.44
2023-04-19T20:42:45.049Z,99391.97
2023-04-19T20:45:14.387Z,99389.03
2023-04-19T20:47:42.819Z,99379.09
2023-04-19T20:50:11.384Z,99381.97
2023-04-19T20:52:41.317Z,99376.56
2023-04-19T20:55:10.211Z,99374.06
2023-04-19T20:57:38.185Z,99371.56
2023-04-19T21:00:08.735Z,99374.50
2023-04-19T21:02:36.833Z,99369.53
2023-04-19T21:05:05.189Z,99342.47
2023-04-19T21:07:33.647Z,99380.31
2023-04-19T21:10:03.000Z,99376.56
2023-04-19T21:12:30.943Z,99376.16
2023-04-19T21:14:58.914Z,99376.34
2023-04-19T21:17:27.189Z,99371.16
2023-04-19T21:19:55.151Z,99376.13
2023-04-19T21:22:23.093Z,99383.41
2023-04-19T21:24:51.069Z,99384.00
2023-04-19T21:27:20.575Z,99395.63
2023-04-19T21:29:48.541Z,99394.78
2023-04-19T21:32:25.873Z,99392.28
2023-04-19T21:34:53.878Z,99395.16
2023-04-19T21:37:21.920Z,99392.84
2023-04-19T21:39:50.481Z,99386.84
2023-04-19T21:42:18.454Z,99386.44
2023-04-19T21:44:47.753Z,99385.22
2023-04-19T21:47:15.674Z,99387.06
2023-04-19T21:49:43.580Z,99386.44
2023-04-19T21:52:11.510Z,99386.00
2023-04-19T21:54:39.482Z,99383.09
2023-04-19T21:57:07.434Z,99382.66
2023-04-19T21:59:36.038Z,99381.16
2023-04-19T22:02:05.501Z,99389.25
2023-04-19T22:04:33.533Z,99385.13
2023-04-19T22:07:02.980Z,99382.66
2023-04-19T22:09:31.362Z,99373.72
2023-04-19T22:12:00.269Z,99386.16
2023-04-19T22:14:28.507Z,99385.13
2023-04-19T22:16:56.753Z,99382.63
2023-04-19T22:19:26.213Z,99389.91
2023-04-19T22:21:55.154Z,99376.41
2023-04-19T22:24:23.333Z,99381.38
2023-04-19T22:26:53.082Z,99379.69
2023-04-19T22:29:21.466Z,99386.75
2023-04-19T22:31:49.610Z,99372.63
2023-04-19T22:34:17.634Z,99365.09
2023-04-19T22:36:47.235Z,99368.03
2023-04-19T22:39:25.773Z,99372.81
2023-04-19T22:42:02.598Z,99379.19
2023-04-19T22:44:45.966Z,99368.16
2023-04-19T22:47:20.376Z,99372.91
2023-04-19T22:50:02.083Z,99374.81
2023-04-19T22:52:44.599Z,99375.41
2023-04-19T22:55:17.876Z,99371.69
2023-04-19T22:58:06.471Z,99371.53
2023-04-19T23:00:48.473Z,99366.00
2023-04-19T23:03:31.577Z,99367.69
2023-04-19T23:06:11.487Z,99367.31
2023-04-19T23:08:41.480Z,99365.25
2023-04-19T23:11:10.132Z,99369.47
2023-04-19T23:13:41.397Z,99360.53
2023-04-19T23:16:10.860Z,99371.56
2023-04-19T23:18:40.241Z,99367.41
2023-04-19T23:21:08.655Z,99363.25
2023-04-19T23:23:36.702Z,99365.13
2023-04-19T23:26:06.055Z,99356.59
2023-04-19T23:28:34.006Z,99359.31
2023-04-19T23:31:01.986Z,99355.78
2023-04-19T23:33:29.958Z,99343.13
2023-04-19T23:35:57.922Z,99345.38
2023-04-19T23:38:25.944Z,99339.16
2023-04-19T23:40:53.932Z,99335.44
2023-04-19T23:43:23.233Z,99343.13
2023-04-19T23:45:51.236Z,99335.44
2023-04-19T23:48:19.180Z,99339.16
2023-04-19T23:50:47.138Z,99336.47
2023-04-19T23:53:15.099Z,99339.59
2023-04-19T23:55:43.052Z,99334.19
2023-04-19T23:58:10.999Z,99340.81
